Terminal Aerodrome Forecast
Issued by NWS

Home | Current Version | Previous Version | Text Only | Print | Product List | Glossary On
Versions: 1 2 3 4 5 6 7 8 9 10 11 12
000
FTUS45 KABQ 142320
TAFFMN
TAF
KFMN 142320Z 1500/1524 29010KT P6SM SKC
     FM150800 08005KT P6SM SKC
     FM151700 14004KT P6SM SCT200
     FM152100 27008KT P6SM SCT150=

USA.gov is the U.S. government's official web portal to all federal, state and local government web resources and services.